sensor_id;sensor_type;location;lat;lon;timestamp;P1;durP1;ratioP1;P2;durP2;ratioP2
38785;SDS011;24535;45.508;12.252;2022-08-19T00:01:48;7.30;;;1.73;;
38785;SDS011;24535;45.508;12.252;2022-08-19T00:04:24;4.88;;;1.85;;
38785;SDS011;24535;45.508;12.252;2022-08-19T00:07:05;5.95;;;2.50;;
38785;SDS011;24535;45.508;12.252;2022-08-19T00:09:31;6.13;;;3.13;;
38785;SDS011;24535;45.508;12.252;2022-08-19T00:11:57;6.38;;;2.75;;
38785;SDS011;24535;45.508;12.252;2022-08-19T00:14:25;13.10;;;3.28;;
38785;SDS011;24535;45.508;12.252;2022-08-19T00:16:51;7.70;;;3.20;;
38785;SDS011;24535;45.508;12.252;2022-08-19T00:19:19;8.00;;;3.42;;
38785;SDS011;24535;45.508;12.252;2022-08-19T00:21:45;9.18;;;2.58;;
38785;SDS011;24535;45.508;12.252;2022-08-19T00:24:11;8.10;;;2.70;;
38785;SDS011;24535;45.508;12.252;2022-08-19T00:26:39;11.25;;;2.80;;
38785;SDS011;24535;45.508;12.252;2022-08-19T00:29:06;6.47;;;2.28;;
38785;SDS011;24535;45.508;12.252;2022-08-19T00:31:33;11.25;;;2.38;;
38785;SDS011;24535;45.508;12.252;2022-08-19T00:33:58;9.35;;;2.38;;
38785;SDS011;24535;45.508;12.252;2022-08-19T00:36:33;8.30;;;2.35;;
38785;SDS011;24535;45.508;12.252;2022-08-19T00:39:03;7.15;;;2.17;;
38785;SDS011;24535;45.508;12.252;2022-08-19T00:41:29;7.38;;;2.42;;
38785;SDS011;24535;45.508;12.252;2022-08-19T00:44:09;8.07;;;1.90;;
38785;SDS011;24535;45.508;12.252;2022-08-19T00:46:47;9.35;;;2.30;;
38785;SDS011;24535;45.508;12.252;2022-08-19T00:49:16;11.63;;;2.10;;
38785;SDS011;24535;45.508;12.252;2022-08-19T00:51:50;9.93;;;3.17;;
38785;SDS011;24535;45.508;12.252;2022-08-19T00:54:18;6.63;;;2.42;;
38785;SDS011;24535;45.508;12.252;2022-08-19T00:56:46;8.65;;;2.80;;
38785;SDS011;24535;45.508;12.252;2022-08-19T00:59:13;7.85;;;3.00;;
38785;SDS011;24535;45.508;12.252;2022-08-19T01:01:40;10.52;;;3.47;;
38785;SDS011;24535;45.508;12.252;2022-08-19T01:04:08;6.55;;;2.33;;
38785;SDS011;24535;45.508;12.252;2022-08-19T01:06:35;6.15;;;1.98;;
38785;SDS011;24535;45.508;12.252;2022-08-19T01:09:03;7.10;;;1.83;;
38785;SDS011;24535;45.508;12.252;2022-08-19T01:11:29;8.27;;;2.42;;
38785;SDS011;24535;45.508;12.252;2022-08-19T01:14:00;9.20;;;2.28;;
38785;SDS011;24535;45.508;12.252;2022-08-19T01:16:27;5.75;;;1.83;;
38785;SDS011;24535;45.508;12.252;2022-08-19T01:18:54;8.88;;;2.33;;
38785;SDS011;24535;45.508;12.252;2022-08-19T01:24:05;6.47;;;2.58;;
38785;SDS011;24535;45.508;12.252;2022-08-19T01:26:31;6.45;;;2.00;;
38785;SDS011;24535;45.508;12.252;2022-08-19T01:29:02;8.65;;;2.30;;
38785;SDS011;24535;45.508;12.252;2022-08-19T01:31:29;5.63;;;2.10;;
38785;SDS011;24535;45.508;12.252;2022-08-19T01:33:57;7.57;;;1.80;;
38785;SDS011;24535;45.508;12.252;2022-08-19T01:36:34;7.43;;;2.03;;
38785;SDS011;24535;45.508;12.252;2022-08-19T01:39:09;9.52;;;2.90;;
38785;SDS011;24535;45.508;12.252;2022-08-19T01:41:38;8.63;;;2.75;;
38785;SDS011;24535;45.508;12.252;2022-08-19T01:44:04;7.35;;;2.33;;
38785;SDS011;24535;45.508;12.252;2022-08-19T01:46:31;8.38;;;2.42;;
38785;SDS011;24535;45.508;12.252;2022-08-19T01:48:57;6.88;;;1.88;;
38785;SDS011;24535;45.508;12.252;2022-08-19T01:51:23;7.30;;;2.20;;
38785;SDS011;24535;45.508;12.252;2022-08-19T01:53:49;3.40;;;1.40;;
38785;SDS011;24535;45.508;12.252;2022-08-19T01:56:17;11.48;;;2.45;;
38785;SDS011;24535;45.508;12.252;2022-08-19T01:58:51;9.38;;;3.05;;
38785;SDS011;24535;45.508;12.252;2022-08-19T02:01:25;12.50;;;2.58;;
38785;SDS011;24535;45.508;12.252;2022-08-19T02:03:51;15.40;;;2.72;;
38785;SDS011;24535;45.508;12.252;2022-08-19T02:06:18;11.70;;;2.47;;
38785;SDS011;24535;45.508;12.252;2022-08-19T02:08:44;12.65;;;2.15;;
38785;SDS011;24535;45.508;12.252;2022-08-19T02:11:17;8.00;;;3.13;;
38785;SDS011;24535;45.508;12.252;2022-08-19T02:13:48;9.32;;;1.90;;
38785;SDS011;24535;45.508;12.252;2022-08-19T02:16:15;7.90;;;2.13;;
38785;SDS011;24535;45.508;12.252;2022-08-19T02:18:42;6.55;;;2.03;;
38785;SDS011;24535;45.508;12.252;2022-08-19T02:21:07;15.68;;;2.53;;
38785;SDS011;24535;45.508;12.252;2022-08-19T02:23:33;9.77;;;2.13;;
38785;SDS011;24535;45.508;12.252;2022-08-19T02:25:58;6.93;;;2.88;;
38785;SDS011;24535;45.508;12.252;2022-08-19T02:28:23;7.30;;;2.30;;
38785;SDS011;24535;45.508;12.252;2022-08-19T02:30:49;6.75;;;1.98;;
38785;SDS011;24535;45.508;12.252;2022-08-19T02:33:15;11.32;;;2.17;;
38785;SDS011;24535;45.508;12.252;2022-08-19T02:35:41;7.47;;;2.08;;
38785;SDS011;24535;45.508;12.252;2022-08-19T02:38:10;14.45;;;2.35;;
38785;SDS011;24535;45.508;12.252;2022-08-19T02:41:00;6.70;;;1.77;;
38785;SDS011;24535;45.508;12.252;2022-08-19T02:43:28;6.45;;;1.85;;
38785;SDS011;24535;45.508;12.252;2022-08-19T02:45:56;7.82;;;1.55;;
38785;SDS011;24535;45.508;12.252;2022-08-19T02:48:22;6.78;;;1.92;;
38785;SDS011;24535;45.508;12.252;2022-08-19T02:50:50;7.05;;;1.92;;
38785;SDS011;24535;45.508;12.252;2022-08-19T02:53:20;7.45;;;2.58;;
38785;SDS011;24535;45.508;12.252;2022-08-19T02:55:48;6.55;;;1.67;;
38785;SDS011;24535;45.508;12.252;2022-08-19T02:58:14;5.28;;;1.98;;
38785;SDS011;24535;45.508;12.252;2022-08-19T03:00:42;5.80;;;1.63;;
38785;SDS011;24535;45.508;12.252;2022-08-19T03:03:09;2.97;;;1.23;;
38785;SDS011;24535;45.508;12.252;2022-08-19T03:05:38;2.80;;;1.42;;
38785;SDS011;24535;45.508;12.252;2022-08-19T03:08:03;2.17;;;1.00;;
38785;SDS011;24535;45.508;12.252;2022-08-19T03:13:33;5.32;;;1.42;;
38785;SDS011;24535;45.508;12.252;2022-08-19T03:15:58;8.07;;;1.55;;
38785;SDS011;24535;45.508;12.252;2022-08-19T03:18:24;2.42;;;0.90;;
38785;SDS011;24535;45.508;12.252;2022-08-19T03:20:50;4.32;;;1.30;;
38785;SDS011;24535;45.508;12.252;2022-08-19T03:23:21;2.95;;;0.93;;
38785;SDS011;24535;45.508;12.252;2022-08-19T03:26:08;6.72;;;1.45;;
38785;SDS011;24535;45.508;12.252;2022-08-19T03:28:33;3.97;;;1.45;;
38785;SDS011;24535;45.508;12.252;2022-08-19T03:31:00;7.13;;;1.10;;
38785;SDS011;24535;45.508;12.252;2022-08-19T03:33:28;4.88;;;1.02;;
38785;SDS011;24535;45.508;12.252;2022-08-19T03:38:39;2.53;;;1.10;;
38785;SDS011;24535;45.508;12.252;2022-08-19T03:41:08;3.60;;;1.27;;
38785;SDS011;24535;45.508;12.252;2022-08-19T03:43:38;8.48;;;1.10;;
38785;SDS011;24535;45.508;12.252;2022-08-19T03:46:05;2.78;;;0.80;;
38785;SDS011;24535;45.508;12.252;2022-08-19T03:48:39;5.28;;;1.80;;
38785;SDS011;24535;45.508;12.252;2022-08-19T03:51:06;6.05;;;1.05;;
38785;SDS011;24535;45.508;12.252;2022-08-19T03:53:32;7.38;;;1.58;;
38785;SDS011;24535;45.508;12.252;2022-08-19T03:56:02;5.85;;;1.65;;
38785;SDS011;24535;45.508;12.252;2022-08-19T03:58:28;4.05;;;1.58;;
38785;SDS011;24535;45.508;12.252;2022-08-19T04:00:57;5.13;;;1.48;;
38785;SDS011;24535;45.508;12.252;2022-08-19T04:03:23;4.20;;;1.13;;
38785;SDS011;24535;45.508;12.252;2022-08-19T04:05:49;4.05;;;0.90;;
38785;SDS011;24535;45.508;12.252;2022-08-19T04:08:16;5.07;;;1.27;;
38785;SDS011;24535;45.508;12.252;2022-08-19T04:10:45;5.78;;;1.40;;
38785;SDS011;24535;45.508;12.252;2022-08-19T04:13:11;2.80;;;1.15;;
38785;SDS011;24535;45.508;12.252;2022-08-19T04:15:40;4.25;;;1.17;;
38785;SDS011;24535;45.508;12.252;2022-08-19T04:18:08;8.75;;;1.98;;
38785;SDS011;24535;45.508;12.252;2022-08-19T04:20:45;4.78;;;1.50;;
38785;SDS011;24535;45.508;12.252;2022-08-19T04:23:13;5.65;;;1.48;;
38785;SDS011;24535;45.508;12.252;2022-08-19T04:25:40;2.92;;;1.13;;
38785;SDS011;24535;45.508;12.252;2022-08-19T04:28:09;3.22;;;1.10;;
38785;SDS011;24535;45.508;12.252;2022-08-19T04:30:44;6.88;;;1.90;;
38785;SDS011;24535;45.508;12.252;2022-08-19T04:33:12;7.20;;;1.23;;
38785;SDS011;24535;45.508;12.252;2022-08-19T04:35:42;3.70;;;1.05;;
38785;SDS011;24535;45.508;12.252;2022-08-19T04:38:10;3.40;;;1.33;;
38785;SDS011;24535;45.508;12.252;2022-08-19T04:40:42;4.75;;;1.10;;
38785;SDS011;24535;45.508;12.252;2022-08-19T04:43:27;6.20;;;1.40;;
38785;SDS011;24535;45.508;12.252;2022-08-19T04:45:56;4.20;;;1.10;;
38785;SDS011;24535;45.508;12.252;2022-08-19T04:48:24;4.80;;;1.20;;
38785;SDS011;24535;45.508;12.252;2022-08-19T04:50:53;6.00;;;1.10;;
38785;SDS011;24535;45.508;12.252;2022-08-19T04:53:30;6.60;;;1.88;;
38785;SDS011;24535;45.508;12.252;2022-08-19T04:55:57;8.18;;;1.58;;
38785;SDS011;24535;45.508;12.252;2022-08-19T04:58:30;6.30;;;1.33;;
38785;SDS011;24535;45.508;12.252;2022-08-19T05:00:55;9.93;;;1.70;;
38785;SDS011;24535;45.508;12.252;2022-08-19T05:03:21;5.40;;;1.33;;
38785;SDS011;24535;45.508;12.252;2022-08-19T05:05:48;3.40;;;1.05;;
38785;SDS011;24535;45.508;12.252;2022-08-19T05:08:15;4.38;;;1.17;;
38785;SDS011;24535;45.508;12.252;2022-08-19T05:10:46;5.38;;;1.73;;
38785;SDS011;24535;45.508;12.252;2022-08-19T05:13:22;5.28;;;0.90;;
38785;SDS011;24535;45.508;12.252;2022-08-19T05:15:55;2.78;;;1.08;;
38785;SDS011;24535;45.508;12.252;2022-08-19T05:18:22;4.68;;;1.73;;
38785;SDS011;24535;45.508;12.252;2022-08-19T05:21:13;4.47;;;1.30;;
38785;SDS011;24535;45.508;12.252;2022-08-19T05:23:59;5.30;;;0.98;;
38785;SDS011;24535;45.508;12.252;2022-08-19T05:26:25;2.45;;;1.15;;
38785;SDS011;24535;45.508;12.252;2022-08-19T05:28:54;3.90;;;1.42;;
38785;SDS011;24535;45.508;12.252;2022-08-19T05:31:23;4.32;;;1.42;;
38785;SDS011;24535;45.508;12.252;2022-08-19T05:33:52;4.13;;;1.48;;
38785;SDS011;24535;45.508;12.252;2022-08-19T05:36:17;4.78;;;1.17;;
38785;SDS011;24535;45.508;12.252;2022-08-19T05:38:46;1.90;;;0.77;;
38785;SDS011;24535;45.508;12.252;2022-08-19T05:41:13;2.10;;;0.80;;
38785;SDS011;24535;45.508;12.252;2022-08-19T05:43:40;6.97;;;1.50;;
38785;SDS011;24535;45.508;12.252;2022-08-19T05:46:07;1.70;;;1.17;;
38785;SDS011;24535;45.508;12.252;2022-08-19T05:51:13;2.78;;;1.17;;
38785;SDS011;24535;45.508;12.252;2022-08-19T05:53:40;5.03;;;1.33;;
38785;SDS011;24535;45.508;12.252;2022-08-19T05:56:07;3.75;;;1.15;;
38785;SDS011;24535;45.508;12.252;2022-08-19T05:58:36;2.50;;;1.20;;
38785;SDS011;24535;45.508;12.252;2022-08-19T06:01:02;4.07;;;1.35;;
38785;SDS011;24535;45.508;12.252;2022-08-19T06:03:33;3.05;;;0.95;;
38785;SDS011;24535;45.508;12.252;2022-08-19T06:06:00;5.57;;;1.63;;
38785;SDS011;24535;45.508;12.252;2022-08-19T06:08:27;5.80;;;1.30;;
38785;SDS011;24535;45.508;12.252;2022-08-19T06:13:19;4.72;;;1.10;;
38785;SDS011;24535;45.508;12.252;2022-08-19T06:15:44;3.45;;;1.17;;
38785;SDS011;24535;45.508;12.252;2022-08-19T06:18:12;2.28;;;1.20;;
38785;SDS011;24535;45.508;12.252;2022-08-19T06:20:39;4.10;;;1.55;;
38785;SDS011;24535;45.508;12.252;2022-08-19T06:23:05;5.45;;;1.17;;
38785;SDS011;24535;45.508;12.252;2022-08-19T06:25:30;3.38;;;1.10;;
38785;SDS011;24535;45.508;12.252;2022-08-19T06:27:56;4.70;;;1.00;;
38785;SDS011;24535;45.508;12.252;2022-08-19T06:30:21;2.58;;;1.27;;
38785;SDS011;24535;45.508;12.252;2022-08-19T06:32:47;4.18;;;1.38;;
38785;SDS011;24535;45.508;12.252;2022-08-19T06:35:12;2.38;;;0.90;;
38785;SDS011;24535;45.508;12.252;2022-08-19T06:37:39;5.93;;;0.85;;
38785;SDS011;24535;45.508;12.252;2022-08-19T06:43:29;3.33;;;1.15;;
38785;SDS011;24535;45.508;12.252;2022-08-19T06:45:55;2.63;;;1.05;;
38785;SDS011;24535;45.508;12.252;2022-08-19T06:48:20;4.15;;;1.02;;
38785;SDS011;24535;45.508;12.252;2022-08-19T06:50:46;6.13;;;1.27;;
38785;SDS011;24535;45.508;12.252;2022-08-19T06:53:14;3.53;;;1.00;;
38785;SDS011;24535;45.508;12.252;2022-08-19T06:55:40;3.67;;;1.00;;
38785;SDS011;24535;45.508;12.252;2022-08-19T06:58:05;5.57;;;1.27;;
38785;SDS011;24535;45.508;12.252;2022-08-19T07:00:31;3.38;;;1.00;;
38785;SDS011;24535;45.508;12.252;2022-08-19T07:02:57;3.58;;;0.80;;
38785;SDS011;24535;45.508;12.252;2022-08-19T07:05:24;5.90;;;1.67;;
38785;SDS011;24535;45.508;12.252;2022-08-19T07:07:52;5.30;;;1.15;;
38785;SDS011;24535;45.508;12.252;2022-08-19T07:10:56;1.48;;;0.93;;
38785;SDS011;24535;45.508;12.252;2022-08-19T07:13:26;3.63;;;1.30;;
38785;SDS011;24535;45.508;12.252;2022-08-19T07:15:52;5.90;;;1.10;;
38785;SDS011;24535;45.508;12.252;2022-08-19T07:18:18;1.85;;;0.73;;
38785;SDS011;24535;45.508;12.252;2022-08-19T07:20:45;5.63;;;1.00;;
38785;SDS011;24535;45.508;12.252;2022-08-19T07:23:11;5.78;;;1.05;;
38785;SDS011;24535;45.508;12.252;2022-08-19T07:25:37;4.57;;;1.30;;
38785;SDS011;24535;45.508;12.252;2022-08-19T07:28:03;8.10;;;1.23;;
38785;SDS011;24535;45.508;12.252;2022-08-19T07:30:29;3.08;;;0.95;;
38785;SDS011;24535;45.508;12.252;2022-08-19T07:32:55;3.50;;;1.17;;
38785;SDS011;24535;45.508;12.252;2022-08-19T07:35:21;4.97;;;0.90;;
38785;SDS011;24535;45.508;12.252;2022-08-19T07:37:48;4.10;;;1.00;;
38785;SDS011;24535;45.508;12.252;2022-08-19T07:40:14;2.38;;;0.77;;
38785;SDS011;24535;45.508;12.252;2022-08-19T07:42:40;3.83;;;1.00;;
38785;SDS011;24535;45.508;12.252;2022-08-19T07:45:07;2.80;;;1.17;;
38785;SDS011;24535;45.508;12.252;2022-08-19T07:47:33;2.17;;;1.08;;
38785;SDS011;24535;45.508;12.252;2022-08-19T07:49:58;3.30;;;0.98;;
38785;SDS011;24535;45.508;12.252;2022-08-19T07:52:23;2.50;;;0.60;;
38785;SDS011;24535;45.508;12.252;2022-08-19T07:54:49;3.88;;;0.90;;
38785;SDS011;24535;45.508;12.252;2022-08-19T07:57:15;3.42;;;1.00;;
38785;SDS011;24535;45.508;12.252;2022-08-19T07:59:41;4.57;;;0.68;;
38785;SDS011;24535;45.508;12.252;2022-08-19T08:08:03;2.92;;;0.88;;
38785;SDS011;24535;45.508;12.252;2022-08-19T08:10:49;3.08;;;0.65;;
38785;SDS011;24535;45.508;12.252;2022-08-19T08:13:15;5.35;;;0.65;;
38785;SDS011;24535;45.508;12.252;2022-08-19T08:15:41;4.78;;;0.80;;
38785;SDS011;24535;45.508;12.252;2022-08-19T08:18:15;3.95;;;1.08;;
38785;SDS011;24535;45.508;12.252;2022-08-19T08:20:40;2.22;;;0.75;;
38785;SDS011;24535;45.508;12.252;2022-08-19T08:23:08;3.22;;;1.05;;
38785;SDS011;24535;45.508;12.252;2022-08-19T08:25:54;3.40;;;0.88;;
38785;SDS011;24535;45.508;12.252;2022-08-19T08:28:21;3.15;;;0.80;;
38785;SDS011;24535;45.508;12.252;2022-08-19T08:30:48;4.03;;;0.82;;
38785;SDS011;24535;45.508;12.252;2022-08-19T08:33:18;2.22;;;0.57;;
38785;SDS011;24535;45.508;12.252;2022-08-19T08:35:46;2.13;;;0.45;;
38785;SDS011;24535;45.508;12.252;2022-08-19T08:38:12;1.33;;;0.63;;
38785;SDS011;24535;45.508;12.252;2022-08-19T08:43:29;1.98;;;0.77;;
38785;SDS011;24535;45.508;12.252;2022-08-19T08:46:03;4.65;;;1.00;;
38785;SDS011;24535;45.508;12.252;2022-08-19T08:49:06;2.50;;;0.73;;
38785;SDS011;24535;45.508;12.252;2022-08-19T08:54:30;2.05;;;0.40;;
38785;SDS011;24535;45.508;12.252;2022-08-19T08:56:59;4.55;;;0.60;;
38785;SDS011;24535;45.508;12.252;2022-08-19T08:59:35;4.68;;;0.80;;
38785;SDS011;24535;45.508;12.252;2022-08-19T09:02:17;2.40;;;0.70;;
38785;SDS011;24535;45.508;12.252;2022-08-19T09:04:43;2.75;;;0.70;;
38785;SDS011;24535;45.508;12.252;2022-08-19T09:09:52;2.95;;;0.82;;
38785;SDS011;24535;45.508;12.252;2022-08-19T09:15:17;3.58;;;0.70;;
38785;SDS011;24535;45.508;12.252;2022-08-19T09:17:52;1.88;;;0.57;;
38785;SDS011;24535;45.508;12.252;2022-08-19T09:20:18;1.67;;;0.70;;
38785;SDS011;24535;45.508;12.252;2022-08-19T09:22:48;1.67;;;0.80;;
38785;SDS011;24535;45.508;12.252;2022-08-19T09:25:19;1.88;;;0.50;;
38785;SDS011;24535;45.508;12.252;2022-08-19T09:27:47;2.08;;;0.75;;
38785;SDS011;24535;45.508;12.252;2022-08-19T09:30:30;1.17;;;0.60;;
38785;SDS011;24535;45.508;12.252;2022-08-19T09:32:58;2.97;;;0.30;;
38785;SDS011;24535;45.508;12.252;2022-08-19T09:35:25;1.20;;;0.35;;
38785;SDS011;24535;45.508;12.252;2022-08-19T09:37:54;3.42;;;0.50;;
38785;SDS011;24535;45.508;12.252;2022-08-19T09:40:20;1.65;;;0.40;;
38785;SDS011;24535;45.508;12.252;2022-08-19T09:42:46;4.30;;;0.40;;
38785;SDS011;24535;45.508;12.252;2022-08-19T09:48:54;1.05;;;0.20;;
38785;SDS011;24535;45.508;12.252;2022-08-19T09:53:58;0.20;;;0.10;;
38785;SDS011;24535;45.508;12.252;2022-08-19T09:56:32;2.15;;;0.30;;
38785;SDS011;24535;45.508;12.252;2022-08-19T09:58:58;0.70;;;0.30;;
38785;SDS011;24535;45.508;12.252;2022-08-19T10:01:26;0.35;;;0.15;;
38785;SDS011;24535;45.508;12.252;2022-08-19T10:03:54;0.50;;;0.20;;
38785;SDS011;24535;45.508;12.252;2022-08-19T10:06:23;2.60;;;0.47;;
38785;SDS011;24535;45.508;12.252;2022-08-19T10:08:50;2.27;;;0.40;;
38785;SDS011;24535;45.508;12.252;2022-08-19T10:11:16;1.23;;;0.38;;
38785;SDS011;24535;45.508;12.252;2022-08-19T10:13:53;1.90;;;0.28;;
38785;SDS011;24535;45.508;12.252;2022-08-19T10:16:20;1.80;;;0.40;;
38785;SDS011;24535;45.508;12.252;2022-08-19T10:18:48;1.05;;;0.30;;
38785;SDS011;24535;45.508;12.252;2022-08-19T10:21:17;1.13;;;0.43;;
38785;SDS011;24535;45.508;12.252;2022-08-19T10:23:48;2.38;;;0.52;;
38785;SDS011;24535;45.508;12.252;2022-08-19T10:26:16;1.60;;;0.28;;
38785;SDS011;24535;45.508;12.252;2022-08-19T10:29:06;1.25;;;0.50;;
38785;SDS011;24535;45.508;12.252;2022-08-19T10:31:32;5.30;;;0.40;;
38785;SDS011;24535;45.508;12.252;2022-08-19T10:33:59;1.25;;;0.40;;
38785;SDS011;24535;45.508;12.252;2022-08-19T10:36:27;1.30;;;0.50;;
38785;SDS011;24535;45.508;12.252;2022-08-19T10:39:06;1.75;;;0.30;;
38785;SDS011;24535;45.508;12.252;2022-08-19T10:41:35;1.63;;;0.52;;
38785;SDS011;24535;45.508;12.252;2022-08-19T10:44:06;1.40;;;0.52;;
38785;SDS011;24535;45.508;12.252;2022-08-19T10:46:37;1.08;;;0.30;;
38785;SDS011;24535;45.508;12.252;2022-08-19T10:49:06;1.23;;;0.30;;
38785;SDS011;24535;45.508;12.252;2022-08-19T10:51:39;1.65;;;0.35;;
38785;SDS011;24535;45.508;12.252;2022-08-19T10:54:24;3.80;;;0.55;;
38785;SDS011;24535;45.508;12.252;2022-08-19T10:57:10;3.60;;;0.60;;
38785;SDS011;24535;45.508;12.252;2022-08-19T10:59:36;2.67;;;0.40;;
38785;SDS011;24535;45.508;12.252;2022-08-19T11:02:03;1.40;;;0.50;;
38785;SDS011;24535;45.508;12.252;2022-08-19T11:04:39;3.25;;;0.93;;
38785;SDS011;24535;45.508;12.252;2022-08-19T11:07:05;2.38;;;0.40;;
38785;SDS011;24535;45.508;12.252;2022-08-19T11:09:31;2.65;;;0.70;;
38785;SDS011;24535;45.508;12.252;2022-08-19T11:12:03;1.83;;;0.60;;
38785;SDS011;24535;45.508;12.252;2022-08-19T11:14:50;2.25;;;0.40;;
38785;SDS011;24535;45.508;12.252;2022-08-19T11:17:15;1.42;;;0.32;;
38785;SDS011;24535;45.508;12.252;2022-08-19T11:19:42;1.08;;;0.50;;
38785;SDS011;24535;45.508;12.252;2022-08-19T11:25:03;1.38;;;0.38;;
38785;SDS011;24535;45.508;12.252;2022-08-19T11:27:29;0.75;;;0.30;;
38785;SDS011;24535;45.508;12.252;2022-08-19T11:32:20;1.50;;;0.30;;
38785;SDS011;24535;45.508;12.252;2022-08-19T11:34:46;1.73;;;0.50;;
38785;SDS011;24535;45.508;12.252;2022-08-19T11:37:11;0.60;;;0.40;;
38785;SDS011;24535;45.508;12.252;2022-08-19T11:39:37;1.10;;;0.40;;
38785;SDS011;24535;45.508;12.252;2022-08-19T11:44:33;3.67;;;0.50;;
38785;SDS011;24535;45.508;12.252;2022-08-19T11:46:59;1.83;;;0.60;;
38785;SDS011;24535;45.508;12.252;2022-08-19T11:49:25;0.85;;;0.40;;
38785;SDS011;24535;45.508;12.252;2022-08-19T11:51:51;1.15;;;0.30;;
38785;SDS011;24535;45.508;12.252;2022-08-19T11:59:50;3.25;;;0.40;;
38785;SDS011;24535;45.508;12.252;2022-08-19T12:02:17;2.75;;;0.77;;
38785;SDS011;24535;45.508;12.252;2022-08-19T12:04:44;1.58;;;0.60;;
38785;SDS011;24535;45.508;12.252;2022-08-19T12:07:09;0.77;;;0.30;;
38785;SDS011;24535;45.508;12.252;2022-08-19T12:09:35;1.05;;;0.40;;
38785;SDS011;24535;45.508;12.252;2022-08-19T12:12:13;0.52;;;0.25;;
38785;SDS011;24535;45.508;12.252;2022-08-19T12:17:32;1.10;;;0.32;;
38785;SDS011;24535;45.508;12.252;2022-08-19T12:19:58;0.80;;;0.20;;
38785;SDS011;24535;45.508;12.252;2022-08-19T12:22:25;0.30;;;0.10;;
38785;SDS011;24535;45.508;12.252;2022-08-19T12:24:50;1.00;;;0.30;;
38785;SDS011;24535;45.508;12.252;2022-08-19T12:27:18;0.30;;;0.30;;
38785;SDS011;24535;45.508;12.252;2022-08-19T12:29:43;1.13;;;0.38;;
38785;SDS011;24535;45.508;12.252;2022-08-19T12:32:12;1.58;;;0.40;;
38785;SDS011;24535;45.508;12.252;2022-08-19T12:34:38;0.30;;;0.10;;
38785;SDS011;24535;45.508;12.252;2022-08-19T12:37:04;0.50;;;0.20;;
38785;SDS011;24535;45.508;12.252;2022-08-19T12:39:38;0.32;;;0.22;;
38785;SDS011;24535;45.508;12.252;2022-08-19T12:42:07;2.03;;;0.20;;
38785;SDS011;24535;45.508;12.252;2022-08-19T12:44:33;0.32;;;0.22;;
38785;SDS011;24535;45.508;12.252;2022-08-19T12:47:00;0.52;;;0.20;;
38785;SDS011;24535;45.508;12.252;2022-08-19T12:52:29;0.90;;;0.30;;
38785;SDS011;24535;45.508;12.252;2022-08-19T12:54:55;0.65;;;0.20;;
38785;SDS011;24535;45.508;12.252;2022-08-19T12:57:27;0.60;;;0.20;;
38785;SDS011;24535;45.508;12.252;2022-08-19T12:59:54;0.50;;;0.17;;
38785;SDS011;24535;45.508;12.252;2022-08-19T13:02:26;1.85;;;0.20;;
38785;SDS011;24535;45.508;12.252;2022-08-19T13:04:51;0.52;;;0.20;;
38785;SDS011;24535;45.508;12.252;2022-08-19T13:07:17;0.38;;;0.20;;
38785;SDS011;24535;45.508;12.252;2022-08-19T13:09:42;0.93;;;0.10;;
38785;SDS011;24535;45.508;12.252;2022-08-19T13:12:08;0.50;;;0.20;;
38785;SDS011;24535;45.508;12.252;2022-08-19T13:14:40;0.35;;;0.20;;
38785;SDS011;24535;45.508;12.252;2022-08-19T13:17:13;1.35;;;0.30;;
38785;SDS011;24535;45.508;12.252;2022-08-19T13:19:41;0.75;;;0.30;;
38785;SDS011;24535;45.508;12.252;2022-08-19T13:22:06;1.63;;;0.30;;
38785;SDS011;24535;45.508;12.252;2022-08-19T13:29:25;1.33;;;0.60;;
38785;SDS011;24535;45.508;12.252;2022-08-19T13:35:06;0.88;;;0.30;;
38785;SDS011;24535;45.508;12.252;2022-08-19T13:37:31;0.65;;;0.20;;
38785;SDS011;24535;45.508;12.252;2022-08-19T13:40:13;0.85;;;0.30;;
38785;SDS011;24535;45.508;12.252;2022-08-19T13:42:47;2.42;;;0.80;;
38785;SDS011;24535;45.508;12.252;2022-08-19T13:45:27;0.88;;;0.47;;
38785;SDS011;24535;45.508;12.252;2022-08-19T13:47:59;1.52;;;0.50;;
38785;SDS011;24535;45.508;12.252;2022-08-19T13:50:30;1.05;;;0.32;;
38785;SDS011;24535;45.508;12.252;2022-08-19T13:52:56;0.70;;;0.30;;
38785;SDS011;24535;45.508;12.252;2022-08-19T13:55:23;1.17;;;0.28;;
38785;SDS011;24535;45.508;12.252;2022-08-19T14:04:12;0.85;;;0.30;;
38785;SDS011;24535;45.508;12.252;2022-08-19T14:06:40;0.90;;;0.45;;
38785;SDS011;24535;45.508;12.252;2022-08-19T14:09:05;3.95;;;0.52;;
38785;SDS011;24535;45.508;12.252;2022-08-19T14:11:35;2.10;;;0.70;;
38785;SDS011;24535;45.508;12.252;2022-08-19T14:19:16;0.98;;;0.47;;
38785;SDS011;24535;45.508;12.252;2022-08-19T14:21:42;1.83;;;0.47;;
38785;SDS011;24535;45.508;12.252;2022-08-19T14:24:07;4.50;;;0.88;;
38785;SDS011;24535;45.508;12.252;2022-08-19T14:26:33;1.75;;;0.80;;
38785;SDS011;24535;45.508;12.252;2022-08-19T14:28:59;0.65;;;0.40;;
38785;SDS011;24535;45.508;12.252;2022-08-19T14:31:24;5.40;;;0.68;;
38785;SDS011;24535;45.508;12.252;2022-08-19T14:33:50;2.75;;;0.57;;
38785;SDS011;24535;45.508;12.252;2022-08-19T14:36:17;1.70;;;0.50;;
38785;SDS011;24535;45.508;12.252;2022-08-19T14:43:43;1.35;;;0.52;;
38785;SDS011;24535;45.508;12.252;2022-08-19T14:46:13;1.73;;;0.63;;
38785;SDS011;24535;45.508;12.252;2022-08-19T14:48:40;1.85;;;0.65;;
38785;SDS011;24535;45.508;12.252;2022-08-19T14:51:06;0.77;;;0.32;;
38785;SDS011;24535;45.508;12.252;2022-08-19T14:53:32;1.80;;;0.50;;
38785;SDS011;24535;45.508;12.252;2022-08-19T14:58:27;1.75;;;0.40;;
38785;SDS011;24535;45.508;12.252;2022-08-19T15:00:53;0.55;;;0.40;;
38785;SDS011;24535;45.508;12.252;2022-08-19T15:03:18;1.38;;;0.65;;
38785;SDS011;24535;45.508;12.252;2022-08-19T15:05:44;1.58;;;0.68;;
38785;SDS011;24535;45.508;12.252;2022-08-19T15:08:09;2.15;;;0.65;;
38785;SDS011;24535;45.508;12.252;2022-08-19T15:10:35;0.90;;;0.40;;
38785;SDS011;24535;45.508;12.252;2022-08-19T15:13:03;0.70;;;0.50;;
38785;SDS011;24535;45.508;12.252;2022-08-19T15:15:28;1.33;;;0.50;;
38785;SDS011;24535;45.508;12.252;2022-08-19T15:17:54;0.60;;;0.30;;
38785;SDS011;24535;45.508;12.252;2022-08-19T15:20:20;2.38;;;0.60;;
38785;SDS011;24535;45.508;12.252;2022-08-19T15:25:15;0.95;;;0.63;;
38785;SDS011;24535;45.508;12.252;2022-08-19T15:27:43;3.50;;;0.90;;
38785;SDS011;24535;45.508;12.252;2022-08-19T15:30:10;1.52;;;0.40;;
38785;SDS011;24535;45.508;12.252;2022-08-19T15:32:37;3.60;;;0.40;;
38785;SDS011;24535;45.508;12.252;2022-08-19T15:35:03;1.50;;;0.60;;
38785;SDS011;24535;45.508;12.252;2022-08-19T15:37:30;1.20;;;0.50;;
38785;SDS011;24535;45.508;12.252;2022-08-19T15:39:55;4.82;;;1.15;;
38785;SDS011;24535;45.508;12.252;2022-08-19T15:42:21;2.03;;;0.47;;
38785;SDS011;24535;45.508;12.252;2022-08-19T15:44:47;2.67;;;1.08;;
38785;SDS011;24535;45.508;12.252;2022-08-19T15:50:06;1.50;;;0.40;;
38785;SDS011;24535;45.508;12.252;2022-08-19T15:52:43;1.52;;;0.80;;
38785;SDS011;24535;45.508;12.252;2022-08-19T15:55:13;2.53;;;0.47;;
38785;SDS011;24535;45.508;12.252;2022-08-19T15:57:38;1.30;;;0.43;;
38785;SDS011;24535;45.508;12.252;2022-08-19T16:00:22;3.50;;;0.50;;
38785;SDS011;24535;45.508;12.252;2022-08-19T16:03:06;4.32;;;1.15;;
38785;SDS011;24535;45.508;12.252;2022-08-19T16:06:05;5.13;;;0.63;;
38785;SDS011;24535;45.508;12.252;2022-08-19T16:11:19;2.08;;;0.85;;
38785;SDS011;24535;45.508;12.252;2022-08-19T16:13:47;2.88;;;0.80;;
38785;SDS011;24535;45.508;12.252;2022-08-19T16:16:17;2.50;;;0.77;;
38785;SDS011;24535;45.508;12.252;2022-08-19T16:18:43;2.55;;;0.65;;